sensor_id;sensor_type;location;lat;lon;timestamp;P1;durP1;ratioP1;P2;durP2;ratioP2
15667;SDS011;7934;48.710;9.024;2023-05-21T00:01:26;20.27;;;18.07;;
15667;SDS011;7934;48.710;9.024;2023-05-21T00:03:53;19.58;;;17.60;;
15667;SDS011;7934;48.710;9.024;2023-05-21T00:06:21;20.33;;;18.38;;
15667;SDS011;7934;48.710;9.024;2023-05-21T00:08:48;20.55;;;18.35;;
15667;SDS011;7934;48.710;9.024;2023-05-21T00:11:15;19.85;;;17.92;;
15667;SDS011;7934;48.710;9.024;2023-05-21T00:13:44;19.90;;;17.80;;
15667;SDS011;7934;48.710;9.024;2023-05-21T00:16:11;22.30;;;20.00;;
15667;SDS011;7934;48.710;9.024;2023-05-21T00:18:38;20.90;;;18.80;;
15667;SDS011;7934;48.710;9.024;2023-05-21T00:21:05;20.75;;;18.75;;
15667;SDS011;7934;48.710;9.024;2023-05-21T00:23:32;21.55;;;19.35;;
15667;SDS011;7934;48.710;9.024;2023-05-21T00:26:01;24.48;;;20.42;;
15667;SDS011;7934;48.710;9.024;2023-05-21T00:28:28;21.10;;;19.03;;
15667;SDS011;7934;48.710;9.024;2023-05-21T00:30:57;23.33;;;19.90;;
15667;SDS011;7934;48.710;9.024;2023-05-21T00:33:24;22.98;;;19.92;;
15667;SDS011;7934;48.710;9.024;2023-05-21T00:35:53;21.83;;;19.60;;
15667;SDS011;7934;48.710;9.024;2023-05-21T00:38:20;21.92;;;19.70;;
15667;SDS011;7934;48.710;9.024;2023-05-21T00:40:48;22.92;;;20.40;;
15667;SDS011;7934;48.710;9.024;2023-05-21T00:43:15;22.83;;;20.42;;
15667;SDS011;7934;48.710;9.024;2023-05-21T00:45:42;22.85;;;20.45;;
15667;SDS011;7934;48.710;9.024;2023-05-21T00:48:12;23.50;;;21.10;;
15667;SDS011;7934;48.710;9.024;2023-05-21T00:50:40;23.25;;;20.85;;
15667;SDS011;7934;48.710;9.024;2023-05-21T00:53:07;22.85;;;20.50;;
15667;SDS011;7934;48.710;9.024;2023-05-21T00:55:35;22.27;;;20.08;;
15667;SDS011;7934;48.710;9.024;2023-05-21T00:58:02;22.55;;;20.13;;
15667;SDS011;7934;48.710;9.024;2023-05-21T01:00:29;23.70;;;20.50;;
15667;SDS011;7934;48.710;9.024;2023-05-21T01:02:58;22.77;;;20.40;;
15667;SDS011;7934;48.710;9.024;2023-05-21T01:05:27;22.45;;;19.65;;
15667;SDS011;7934;48.710;9.024;2023-05-21T01:07:55;23.38;;;20.98;;
15667;SDS011;7934;48.710;9.024;2023-05-21T01:10:22;23.40;;;20.92;;
15667;SDS011;7934;48.710;9.024;2023-05-21T01:12:50;24.27;;;21.67;;
15667;SDS011;7934;48.710;9.024;2023-05-21T01:15:17;23.42;;;20.92;;
15667;SDS011;7934;48.710;9.024;2023-05-21T01:17:45;24.17;;;21.38;;
15667;SDS011;7934;48.710;9.024;2023-05-21T01:20:13;24.65;;;22.08;;
15667;SDS011;7934;48.710;9.024;2023-05-21T01:22:47;24.90;;;22.30;;
15667;SDS011;7934;48.710;9.024;2023-05-21T01:25:15;24.85;;;22.27;;
15667;SDS011;7934;48.710;9.024;2023-05-21T01:27:42;24.87;;;22.20;;
15667;SDS011;7934;48.710;9.024;2023-05-21T01:30:09;27.95;;;22.45;;
15667;SDS011;7934;48.710;9.024;2023-05-21T01:32:38;25.48;;;22.92;;
15667;SDS011;7934;48.710;9.024;2023-05-21T01:35:07;24.42;;;21.85;;
15667;SDS011;7934;48.710;9.024;2023-05-21T01:37:35;24.08;;;21.58;;
15667;SDS011;7934;48.710;9.024;2023-05-21T01:40:07;24.90;;;22.27;;
15667;SDS011;7934;48.710;9.024;2023-05-21T01:42:37;25.93;;;23.17;;
15667;SDS011;7934;48.710;9.024;2023-05-21T01:45:05;25.65;;;22.85;;
15667;SDS011;7934;48.710;9.024;2023-05-21T01:47:33;24.93;;;22.33;;
15667;SDS011;7934;48.710;9.024;2023-05-21T01:50:02;25.30;;;22.70;;
15667;SDS011;7934;48.710;9.024;2023-05-21T01:52:30;27.77;;;23.17;;
15667;SDS011;7934;48.710;9.024;2023-05-21T01:54:58;25.15;;;22.48;;
15667;SDS011;7934;48.710;9.024;2023-05-21T01:57:26;26.23;;;23.30;;
15667;SDS011;7934;48.710;9.024;2023-05-21T01:59:53;26.75;;;22.95;;
15667;SDS011;7934;48.710;9.024;2023-05-21T02:02:21;26.65;;;23.85;;
15667;SDS011;7934;48.710;9.024;2023-05-21T02:04:49;24.95;;;22.45;;
15667;SDS011;7934;48.710;9.024;2023-05-21T02:07:16;26.38;;;23.05;;
15667;SDS011;7934;48.710;9.024;2023-05-21T02:09:44;26.27;;;22.60;;
15667;SDS011;7934;48.710;9.024;2023-05-21T02:12:12;24.92;;;22.25;;
15667;SDS011;7934;48.710;9.024;2023-05-21T02:14:40;27.98;;;23.88;;
15667;SDS011;7934;48.710;9.024;2023-05-21T02:17:08;25.80;;;23.10;;
15667;SDS011;7934;48.710;9.024;2023-05-21T02:19:35;25.98;;;23.17;;
15667;SDS011;7934;48.710;9.024;2023-05-21T02:22:02;29.48;;;24.67;;
15667;SDS011;7934;48.710;9.024;2023-05-21T02:24:29;26.95;;;24.15;;
15667;SDS011;7934;48.710;9.024;2023-05-21T02:26:56;27.98;;;24.33;;
15667;SDS011;7934;48.710;9.024;2023-05-21T02:29:23;28.00;;;24.88;;
15667;SDS011;7934;48.710;9.024;2023-05-21T02:31:52;25.73;;;23.13;;
15667;SDS011;7934;48.710;9.024;2023-05-21T02:34:19;24.60;;;22.05;;
15667;SDS011;7934;48.710;9.024;2023-05-21T02:36:46;25.45;;;22.67;;
15667;SDS011;7934;48.710;9.024;2023-05-21T02:39:16;25.83;;;23.17;;
15667;SDS011;7934;48.710;9.024;2023-05-21T02:41:44;25.33;;;22.77;;
15667;SDS011;7934;48.710;9.024;2023-05-21T02:44:11;25.38;;;22.48;;
15667;SDS011;7934;48.710;9.024;2023-05-21T02:46:38;25.33;;;22.63;;
15667;SDS011;7934;48.710;9.024;2023-05-21T02:49:07;25.38;;;22.83;;
15667;SDS011;7934;48.710;9.024;2023-05-21T02:51:34;26.60;;;23.80;;
15667;SDS011;7934;48.710;9.024;2023-05-21T02:54:02;27.98;;;23.70;;
15667;SDS011;7934;48.710;9.024;2023-05-21T02:56:29;26.38;;;23.70;;
15667;SDS011;7934;48.710;9.024;2023-05-21T02:58:56;25.50;;;22.95;;
15667;SDS011;7934;48.710;9.024;2023-05-21T03:01:24;25.85;;;23.15;;
15667;SDS011;7934;48.710;9.024;2023-05-21T03:03:51;25.65;;;22.65;;
15667;SDS011;7934;48.710;9.024;2023-05-21T03:06:19;25.20;;;22.57;;
15667;SDS011;7934;48.710;9.024;2023-05-21T03:08:46;26.67;;;23.85;;
15667;SDS011;7934;48.710;9.024;2023-05-21T03:11:13;26.13;;;23.20;;
15667;SDS011;7934;48.710;9.024;2023-05-21T03:13:41;27.37;;;24.47;;
15667;SDS011;7934;48.710;9.024;2023-05-21T03:16:08;29.02;;;25.08;;
15667;SDS011;7934;48.710;9.024;2023-05-21T03:18:38;26.77;;;24.08;;
15667;SDS011;7934;48.710;9.024;2023-05-21T03:21:07;25.90;;;23.17;;
15667;SDS011;7934;48.710;9.024;2023-05-21T03:23:38;27.83;;;24.45;;
15667;SDS011;7934;48.710;9.024;2023-05-21T03:26:05;28.08;;;24.65;;
15667;SDS011;7934;48.710;9.024;2023-05-21T03:28:33;26.60;;;23.85;;
15667;SDS011;7934;48.710;9.024;2023-05-21T03:31:00;27.08;;;23.50;;
15667;SDS011;7934;48.710;9.024;2023-05-21T03:33:28;27.55;;;24.73;;
15667;SDS011;7934;48.710;9.024;2023-05-21T03:35:55;28.13;;;25.27;;
15667;SDS011;7934;48.710;9.024;2023-05-21T03:38:22;29.63;;;24.88;;
15667;SDS011;7934;48.710;9.024;2023-05-21T03:40:50;27.23;;;24.27;;
15667;SDS011;7934;48.710;9.024;2023-05-21T03:43:18;29.42;;;25.40;;
15667;SDS011;7934;48.710;9.024;2023-05-21T03:45:45;29.15;;;25.38;;
15667;SDS011;7934;48.710;9.024;2023-05-21T03:48:12;28.42;;;25.38;;
15667;SDS011;7934;48.710;9.024;2023-05-21T03:50:43;27.77;;;24.87;;
15667;SDS011;7934;48.710;9.024;2023-05-21T03:53:15;26.80;;;24.00;;
15667;SDS011;7934;48.710;9.024;2023-05-21T03:55:42;28.58;;;25.45;;
15667;SDS011;7934;48.710;9.024;2023-05-21T03:58:11;28.23;;;25.23;;
15667;SDS011;7934;48.710;9.024;2023-05-21T04:00:38;29.80;;;26.52;;
15667;SDS011;7934;48.710;9.024;2023-05-21T04:03:06;30.55;;;26.27;;
15667;SDS011;7934;48.710;9.024;2023-05-21T04:05:33;30.93;;;27.40;;
15667;SDS011;7934;48.710;9.024;2023-05-21T04:08:00;30.17;;;26.85;;
15667;SDS011;7934;48.710;9.024;2023-05-21T04:10:27;29.58;;;26.48;;
15667;SDS011;7934;48.710;9.024;2023-05-21T04:12:54;29.40;;;26.20;;
15667;SDS011;7934;48.710;9.024;2023-05-21T04:15:23;29.13;;;26.02;;
15667;SDS011;7934;48.710;9.024;2023-05-21T04:17:53;29.63;;;26.52;;
15667;SDS011;7934;48.710;9.024;2023-05-21T04:20:20;29.57;;;26.47;;
15667;SDS011;7934;48.710;9.024;2023-05-21T04:22:48;30.10;;;26.90;;
15667;SDS011;7934;48.710;9.024;2023-05-21T04:25:15;28.10;;;25.15;;
15667;SDS011;7934;48.710;9.024;2023-05-21T04:27:44;28.25;;;25.25;;
15667;SDS011;7934;48.710;9.024;2023-05-21T04:30:15;28.40;;;25.40;;
15667;SDS011;7934;48.710;9.024;2023-05-21T04:32:45;29.00;;;26.00;;
15667;SDS011;7934;48.710;9.024;2023-05-21T04:35:12;28.05;;;25.10;;
15667;SDS011;7934;48.710;9.024;2023-05-21T04:37:40;27.27;;;24.47;;
15667;SDS011;7934;48.710;9.024;2023-05-21T04:40:10;26.80;;;24.00;;
15667;SDS011;7934;48.710;9.024;2023-05-21T04:42:38;28.17;;;23.77;;
15667;SDS011;7934;48.710;9.024;2023-05-21T04:45:06;25.23;;;22.60;;
15667;SDS011;7934;48.710;9.024;2023-05-21T04:47:34;27.65;;;24.63;;
15667;SDS011;7934;48.710;9.024;2023-05-21T04:50:03;26.63;;;23.75;;
15667;SDS011;7934;48.710;9.024;2023-05-21T04:52:30;25.23;;;22.52;;
15667;SDS011;7934;48.710;9.024;2023-05-21T04:54:59;27.38;;;24.58;;
15667;SDS011;7934;48.710;9.024;2023-05-21T04:57:26;26.23;;;23.63;;
15667;SDS011;7934;48.710;9.024;2023-05-21T04:59:53;25.80;;;23.00;;
15667;SDS011;7934;48.710;9.024;2023-05-21T05:02:21;25.55;;;22.90;;
15667;SDS011;7934;48.710;9.024;2023-05-21T05:04:49;25.10;;;22.50;;
15667;SDS011;7934;48.710;9.024;2023-05-21T05:07:20;24.83;;;21.95;;
15667;SDS011;7934;48.710;9.024;2023-05-21T05:09:47;25.50;;;22.90;;
15667;SDS011;7934;48.710;9.024;2023-05-21T05:12:15;25.08;;;22.42;;
15667;SDS011;7934;48.710;9.024;2023-05-21T05:14:42;24.90;;;22.27;;
15667;SDS011;7934;48.710;9.024;2023-05-21T05:17:09;24.98;;;22.48;;
15667;SDS011;7934;48.710;9.024;2023-05-21T05:19:39;24.30;;;21.77;;
15667;SDS011;7934;48.710;9.024;2023-05-21T05:22:06;23.70;;;21.45;;
15667;SDS011;7934;48.710;9.024;2023-05-21T05:24:35;24.65;;;22.15;;
15667;SDS011;7934;48.710;9.024;2023-05-21T05:27:02;23.10;;;20.80;;
15667;SDS011;7934;48.710;9.024;2023-05-21T05:29:29;22.67;;;20.48;;
15667;SDS011;7934;48.710;9.024;2023-05-21T05:31:56;24.20;;;21.70;;
15667;SDS011;7934;48.710;9.024;2023-05-21T05:34:23;22.20;;;20.10;;
15667;SDS011;7934;48.710;9.024;2023-05-21T05:36:50;24.05;;;21.58;;
15667;SDS011;7934;48.710;9.024;2023-05-21T05:39:18;22.65;;;20.38;;
15667;SDS011;7934;48.710;9.024;2023-05-21T05:41:46;24.80;;;22.23;;
15667;SDS011;7934;48.710;9.024;2023-05-21T05:44:16;23.83;;;21.33;;
15667;SDS011;7934;48.710;9.024;2023-05-21T05:46:43;23.73;;;21.33;;
15667;SDS011;7934;48.710;9.024;2023-05-21T05:49:10;22.20;;;20.05;;
15667;SDS011;7934;48.710;9.024;2023-05-21T05:51:37;23.55;;;21.15;;
15667;SDS011;7934;48.710;9.024;2023-05-21T05:54:05;24.00;;;21.42;;
15667;SDS011;7934;48.710;9.024;2023-05-21T05:56:32;23.70;;;21.30;;
15667;SDS011;7934;48.710;9.024;2023-05-21T05:59:00;22.60;;;20.40;;
15667;SDS011;7934;48.710;9.024;2023-05-21T06:01:29;22.53;;;20.23;;
15667;SDS011;7934;48.710;9.024;2023-05-21T06:03:57;21.58;;;19.38;;
15667;SDS011;7934;48.710;9.024;2023-05-21T06:06:24;20.58;;;18.73;;
15667;SDS011;7934;48.710;9.024;2023-05-21T06:08:51;19.85;;;17.92;;
15667;SDS011;7934;48.710;9.024;2023-05-21T06:11:19;18.90;;;17.20;;
15667;SDS011;7934;48.710;9.024;2023-05-21T06:13:46;19.40;;;17.50;;
15667;SDS011;7934;48.710;9.024;2023-05-21T06:16:15;18.80;;;16.85;;
15667;SDS011;7934;48.710;9.024;2023-05-21T06:18:42;18.42;;;16.73;;
15667;SDS011;7934;48.710;9.024;2023-05-21T06:21:09;18.40;;;16.42;;
15667;SDS011;7934;48.710;9.024;2023-05-21T06:23:39;18.80;;;16.98;;
15667;SDS011;7934;48.710;9.024;2023-05-21T06:26:07;17.88;;;16.17;;
15667;SDS011;7934;48.710;9.024;2023-05-21T06:28:34;17.30;;;15.75;;
15667;SDS011;7934;48.710;9.024;2023-05-21T06:31:01;17.58;;;15.85;;
15667;SDS011;7934;48.710;9.024;2023-05-21T06:33:29;17.48;;;15.82;;
15667;SDS011;7934;48.710;9.024;2023-05-21T06:35:59;17.63;;;15.73;;
15667;SDS011;7934;48.710;9.024;2023-05-21T06:38:26;17.70;;;16.02;;
15667;SDS011;7934;48.710;9.024;2023-05-21T06:40:53;17.87;;;16.27;;
15667;SDS011;7934;48.710;9.024;2023-05-21T06:43:22;17.65;;;15.75;;
15667;SDS011;7934;48.710;9.024;2023-05-21T06:45:49;16.58;;;14.88;;
15667;SDS011;7934;48.710;9.024;2023-05-21T06:48:16;16.48;;;14.88;;
15667;SDS011;7934;48.710;9.024;2023-05-21T06:50:45;16.57;;;15.03;;
15667;SDS011;7934;48.710;9.024;2023-05-21T06:53:12;16.15;;;14.68;;
15667;SDS011;7934;48.710;9.024;2023-05-21T06:55:40;15.77;;;14.27;;
15667;SDS011;7934;48.710;9.024;2023-05-21T06:58:08;16.52;;;14.95;;
15667;SDS011;7934;48.710;9.024;2023-05-21T07:00:36;15.05;;;13.65;;
15667;SDS011;7934;48.710;9.024;2023-05-21T07:03:03;15.77;;;14.40;;
15667;SDS011;7934;48.710;9.024;2023-05-21T07:05:30;15.27;;;13.88;;
15667;SDS011;7934;48.710;9.024;2023-05-21T07:07:58;14.63;;;13.32;;
15667;SDS011;7934;48.710;9.024;2023-05-21T07:10:25;15.57;;;14.00;;
15667;SDS011;7934;48.710;9.024;2023-05-21T07:12:53;14.75;;;13.52;;
15667;SDS011;7934;48.710;9.024;2023-05-21T07:15:20;14.32;;;13.02;;
15667;SDS011;7934;48.710;9.024;2023-05-21T07:17:47;14.23;;;13.00;;
15667;SDS011;7934;48.710;9.024;2023-05-21T07:20:14;14.23;;;12.98;;
15667;SDS011;7934;48.710;9.024;2023-05-21T07:22:42;12.93;;;11.82;;
15667;SDS011;7934;48.710;9.024;2023-05-21T07:25:11;12.80;;;11.60;;
15667;SDS011;7934;48.710;9.024;2023-05-21T07:27:38;12.73;;;11.50;;
15667;SDS011;7934;48.710;9.024;2023-05-21T07:30:06;12.48;;;11.48;;
15667;SDS011;7934;48.710;9.024;2023-05-21T07:32:33;12.75;;;11.65;;
15667;SDS011;7934;48.710;9.024;2023-05-21T07:35:00;12.67;;;11.57;;
15667;SDS011;7934;48.710;9.024;2023-05-21T07:37:27;12.32;;;11.25;;
15667;SDS011;7934;48.710;9.024;2023-05-21T07:39:55;10.45;;;9.65;;
15667;SDS011;7934;48.710;9.024;2023-05-21T07:42:24;10.90;;;9.97;;
15667;SDS011;7934;48.710;9.024;2023-05-21T07:44:51;11.07;;;10.10;;
15667;SDS011;7934;48.710;9.024;2023-05-21T07:47:18;10.02;;;9.23;;
15667;SDS011;7934;48.710;9.024;2023-05-21T07:49:47;9.73;;;8.93;;
15667;SDS011;7934;48.710;9.024;2023-05-21T07:52:14;9.68;;;8.88;;
15667;SDS011;7934;48.710;9.024;2023-05-21T07:54:41;9.90;;;9.10;;
15667;SDS011;7934;48.710;9.024;2023-05-21T07:57:08;10.90;;;9.80;;
15667;SDS011;7934;48.710;9.024;2023-05-21T07:59:37;10.38;;;9.50;;
15667;SDS011;7934;48.710;9.024;2023-05-21T08:02:04;9.73;;;9.02;;
15667;SDS011;7934;48.710;9.024;2023-05-21T08:04:31;10.75;;;8.88;;
15667;SDS011;7934;48.710;9.024;2023-05-21T08:06:58;9.30;;;8.60;;
15667;SDS011;7934;48.710;9.024;2023-05-21T08:09:25;12.50;;;8.90;;
15667;SDS011;7934;48.710;9.024;2023-05-21T08:11:53;9.85;;;9.05;;
15667;SDS011;7934;48.710;9.024;2023-05-21T08:14:20;11.02;;;9.10;;
15667;SDS011;7934;48.710;9.024;2023-05-21T08:16:49;10.00;;;9.00;;
15667;SDS011;7934;48.710;9.024;2023-05-21T08:19:16;10.43;;;9.43;;
15667;SDS011;7934;48.710;9.024;2023-05-21T08:21:43;9.73;;;8.93;;
15667;SDS011;7934;48.710;9.024;2023-05-21T08:24:11;10.73;;;9.63;;
15667;SDS011;7934;48.710;9.024;2023-05-21T08:26:38;9.93;;;9.02;;
15667;SDS011;7934;48.710;9.024;2023-05-21T08:29:05;9.95;;;9.05;;
15667;SDS011;7934;48.710;9.024;2023-05-21T08:31:32;9.13;;;8.43;;
15667;SDS011;7934;48.710;9.024;2023-05-21T08:34:01;9.65;;;8.95;;
15667;SDS011;7934;48.710;9.024;2023-05-21T08:36:28;9.18;;;8.38;;
15667;SDS011;7934;48.710;9.024;2023-05-21T08:38:55;10.00;;;8.90;;
15667;SDS011;7934;48.710;9.024;2023-05-21T08:41:22;9.00;;;8.32;;
15667;SDS011;7934;48.710;9.024;2023-05-21T08:43:52;9.90;;;9.10;;
15667;SDS011;7934;48.710;9.024;2023-05-21T08:46:21;9.95;;;9.15;;
15667;SDS011;7934;48.710;9.024;2023-05-21T08:48:50;9.60;;;8.70;;
15667;SDS011;7934;48.710;9.024;2023-05-21T08:51:21;8.65;;;7.90;;
15667;SDS011;7934;48.710;9.024;2023-05-21T08:53:49;9.73;;;8.93;;
15667;SDS011;7934;48.710;9.024;2023-05-21T08:56:16;9.98;;;9.13;;
15667;SDS011;7934;48.710;9.024;2023-05-21T08:58:44;10.27;;;9.38;;
15667;SDS011;7934;48.710;9.024;2023-05-21T09:01:12;9.57;;;8.55;;
15667;SDS011;7934;48.710;9.024;2023-05-21T09:03:42;9.85;;;8.95;;
15667;SDS011;7934;48.710;9.024;2023-05-21T09:06:10;10.18;;;9.27;;
15667;SDS011;7934;48.710;9.024;2023-05-21T09:08:41;10.18;;;9.30;;
15667;SDS011;7934;48.710;9.024;2023-05-21T09:11:09;9.52;;;8.63;;
15667;SDS011;7934;48.710;9.024;2023-05-21T09:13:37;9.40;;;8.60;;
15667;SDS011;7934;48.710;9.024;2023-05-21T09:16:04;9.55;;;8.75;;
15667;SDS011;7934;48.710;9.024;2023-05-21T09:18:32;9.27;;;8.40;;
15667;SDS011;7934;48.710;9.024;2023-05-21T09:20:59;9.57;;;8.82;;
15667;SDS011;7934;48.710;9.024;2023-05-21T09:23:50;10.48;;;9.55;;
15667;SDS011;7934;48.710;9.024;2023-05-21T09:26:19;9.27;;;8.57;;
15667;SDS011;7934;48.710;9.024;2023-05-21T09:28:47;9.23;;;8.43;;
15667;SDS011;7934;48.710;9.024;2023-05-21T09:31:14;9.00;;;8.30;;
15667;SDS011;7934;48.710;9.024;2023-05-21T09:33:44;9.63;;;8.82;;
15667;SDS011;7934;48.710;9.024;2023-05-21T09:36:12;9.23;;;8.52;;
15667;SDS011;7934;48.710;9.024;2023-05-21T09:38:39;9.18;;;8.40;;
15667;SDS011;7934;48.710;9.024;2023-05-21T09:41:07;10.20;;;9.30;;
15667;SDS011;7934;48.710;9.024;2023-05-21T09:43:35;9.03;;;8.30;;
15667;SDS011;7934;48.710;9.024;2023-05-21T09:46:02;10.40;;;9.55;;
15667;SDS011;7934;48.710;9.024;2023-05-21T09:48:33;10.82;;;9.93;;
15667;SDS011;7934;48.710;9.024;2023-05-21T09:51:07;11.93;;;10.77;;
15667;SDS011;7934;48.710;9.024;2023-05-21T09:53:34;12.02;;;11.00;;
15667;SDS011;7934;48.710;9.024;2023-05-21T09:56:01;11.27;;;10.20;;
15667;SDS011;7934;48.710;9.024;2023-05-21T09:58:30;10.38;;;9.57;;
15667;SDS011;7934;48.710;9.024;2023-05-21T10:00:58;11.60;;;10.63;;
15667;SDS011;7934;48.710;9.024;2023-05-21T10:03:26;11.05;;;10.07;;
15667;SDS011;7934;48.710;9.024;2023-05-21T10:05:54;10.88;;;10.00;;
15667;SDS011;7934;48.710;9.024;2023-05-21T10:08:25;11.00;;;10.20;;
15667;SDS011;7934;48.710;9.024;2023-05-21T10:10:52;10.95;;;10.05;;
15667;SDS011;7934;48.710;9.024;2023-05-21T10:13:20;10.57;;;9.68;;
15667;SDS011;7934;48.710;9.024;2023-05-21T10:15:54;11.18;;;10.27;;
15667;SDS011;7934;48.710;9.024;2023-05-21T10:18:23;10.70;;;9.80;;
15667;SDS011;7934;48.710;9.024;2023-05-21T10:20:50;11.75;;;10.85;;
15667;SDS011;7934;48.710;9.024;2023-05-21T10:23:18;12.35;;;11.20;;
15667;SDS011;7934;48.710;9.024;2023-05-21T10:25:46;12.68;;;11.48;;
15667;SDS011;7934;48.710;9.024;2023-05-21T10:28:15;11.20;;;10.15;;
15667;SDS011;7934;48.710;9.024;2023-05-21T10:30:42;11.73;;;10.30;;
15667;SDS011;7934;48.710;9.024;2023-05-21T10:33:11;11.18;;;10.18;;
15667;SDS011;7934;48.710;9.024;2023-05-21T10:35:39;10.88;;;9.65;;
15667;SDS011;7934;48.710;9.024;2023-05-21T10:38:07;11.20;;;10.05;;
15667;SDS011;7934;48.710;9.024;2023-05-21T10:40:34;10.35;;;9.45;;
15667;SDS011;7934;48.710;9.024;2023-05-21T10:43:18;12.23;;;11.02;;
15667;SDS011;7934;48.710;9.024;2023-05-21T10:45:54;11.50;;;10.52;;
15667;SDS011;7934;48.710;9.024;2023-05-21T10:48:31;10.65;;;9.85;;
15667;SDS011;7934;48.710;9.024;2023-05-21T10:51:09;11.07;;;10.18;;
15667;SDS011;7934;48.710;9.024;2023-05-21T10:53:41;10.82;;;9.93;;
15667;SDS011;7934;48.710;9.024;2023-05-21T10:56:13;10.02;;;9.23;;
15667;SDS011;7934;48.710;9.024;2023-05-21T10:58:47;10.70;;;9.70;;
15667;SDS011;7934;48.710;9.024;2023-05-21T11:01:17;9.80;;;9.10;;
15667;SDS011;7934;48.710;9.024;2023-05-21T11:03:46;10.45;;;9.65;;
15667;SDS011;7934;48.710;9.024;2023-05-21T11:06:20;9.75;;;8.95;;
15667;SDS011;7934;48.710;9.024;2023-05-21T11:08:48;9.82;;;9.02;;
15667;SDS011;7934;48.710;9.024;2023-05-21T11:14:01;9.63;;;8.93;;
15667;SDS011;7934;48.710;9.024;2023-05-21T11:16:49;9.00;;;8.20;;
15667;SDS011;7934;48.710;9.024;2023-05-21T11:19:17;9.68;;;8.70;;
15667;SDS011;7934;48.710;9.024;2023-05-21T11:21:49;9.70;;;8.90;;
15667;SDS011;7934;48.710;9.024;2023-05-21T11:24:17;9.30;;;8.50;;
15667;SDS011;7934;48.710;9.024;2023-05-21T11:27:00;9.43;;;8.68;;
15667;SDS011;7934;48.710;9.024;2023-05-21T11:32:13;9.40;;;8.60;;
15667;SDS011;7934;48.710;9.024;2023-05-21T11:34:46;9.00;;;8.20;;
15667;SDS011;7934;48.710;9.024;2023-05-21T11:37:23;7.82;;;7.30;;
15667;SDS011;7934;48.710;9.024;2023-05-21T11:39:51;8.10;;;7.35;;
15667;SDS011;7934;48.710;9.024;2023-05-21T11:42:31;8.60;;;7.80;;
15667;SDS011;7934;48.710;9.024;2023-05-21T11:44:59;7.90;;;7.20;;
15667;SDS011;7934;48.710;9.024;2023-05-21T11:47:27;8.50;;;7.78;;
15667;SDS011;7934;48.710;9.024;2023-05-21T11:49:57;7.57;;;6.97;;
15667;SDS011;7934;48.710;9.024;2023-05-21T11:52:24;8.40;;;7.70;;
15667;SDS011;7934;48.710;9.024;2023-05-21T11:54:52;7.90;;;7.20;;
15667;SDS011;7934;48.710;9.024;2023-05-21T11:57:21;7.97;;;7.32;;
15667;SDS011;7934;48.710;9.024;2023-05-21T11:59:50;7.68;;;7.07;;
15667;SDS011;7934;48.710;9.024;2023-05-21T12:02:18;8.17;;;7.47;;
15667;SDS011;7934;48.710;9.024;2023-05-21T12:04:45;7.05;;;6.45;;
15667;SDS011;7934;48.710;9.024;2023-05-21T12:07:15;7.60;;;7.00;;
15667;SDS011;7934;48.710;9.024;2023-05-21T12:09:43;7.00;;;6.30;;
15667;SDS011;7934;48.710;9.024;2023-05-21T12:12:11;7.22;;;6.63;;
15667;SDS011;7934;48.710;9.024;2023-05-21T12:14:38;7.18;;;6.55;;
15667;SDS011;7934;48.710;9.024;2023-05-21T12:17:05;7.82;;;7.00;;
15667;SDS011;7934;48.710;9.024;2023-05-21T12:19:34;7.82;;;7.18;;
15667;SDS011;7934;48.710;9.024;2023-05-21T12:22:01;7.75;;;7.05;;
15667;SDS011;7934;48.710;9.024;2023-05-21T12:24:30;8.03;;;7.33;;
15667;SDS011;7934;48.710;9.024;2023-05-21T12:26:57;7.38;;;6.88;;
15667;SDS011;7934;48.710;9.024;2023-05-21T12:29:25;7.30;;;6.80;;
15667;SDS011;7934;48.710;9.024;2023-05-21T12:31:52;8.13;;;7.43;;
15667;SDS011;7934;48.710;9.024;2023-05-21T12:34:38;7.05;;;6.55;;
15667;SDS011;7934;48.710;9.024;2023-05-21T12:37:07;7.63;;;7.10;;
15667;SDS011;7934;48.710;9.024;2023-05-21T12:39:38;8.38;;;7.68;;
15667;SDS011;7934;48.710;9.024;2023-05-21T12:42:06;7.93;;;7.18;;
15667;SDS011;7934;48.710;9.024;2023-05-21T12:44:33;7.60;;;6.95;;
15667;SDS011;7934;48.710;9.024;2023-05-21T12:47:01;7.75;;;7.20;;
15667;SDS011;7934;48.710;9.024;2023-05-21T12:49:32;7.55;;;6.85;;
15667;SDS011;7934;48.710;9.024;2023-05-21T12:52:00;8.40;;;7.72;;
15667;SDS011;7934;48.710;9.024;2023-05-21T12:54:29;8.13;;;7.45;;
15667;SDS011;7934;48.710;9.024;2023-05-21T12:56:57;7.25;;;6.68;;
15667;SDS011;7934;48.710;9.024;2023-05-21T12:59:38;8.68;;;7.97;;
15667;SDS011;7934;48.710;9.024;2023-05-21T13:02:05;8.25;;;7.53;;
15667;SDS011;7934;48.710;9.024;2023-05-21T13:04:34;7.53;;;6.77;;
15667;SDS011;7934;48.710;9.024;2023-05-21T13:07:01;7.03;;;6.53;;
15667;SDS011;7934;48.710;9.024;2023-05-21T13:09:29;7.17;;;6.57;;
15667;SDS011;7934;48.710;9.024;2023-05-21T13:11:57;7.07;;;6.50;;
15667;SDS011;7934;48.710;9.024;2023-05-21T13:14:24;6.82;;;6.32;;
15667;SDS011;7934;48.710;9.024;2023-05-21T13:16:51;7.43;;;6.80;;
15667;SDS011;7934;48.710;9.024;2023-05-21T13:19:19;7.47;;;6.78;;
15667;SDS011;7934;48.710;9.024;2023-05-21T13:21:46;7.75;;;7.07;;
15667;SDS011;7934;48.710;9.024;2023-05-21T13:24:13;7.22;;;6.68;;
15667;SDS011;7934;48.710;9.024;2023-05-21T13:26:40;7.43;;;6.72;;
15667;SDS011;7934;48.710;9.024;2023-05-21T13:29:08;7.00;;;6.50;;
15667;SDS011;7934;48.710;9.024;2023-05-21T13:31:38;7.43;;;6.82;;
15667;SDS011;7934;48.710;9.024;2023-05-21T13:34:05;6.75;;;6.30;;
15667;SDS011;7934;48.710;9.024;2023-05-21T13:36:32;7.87;;;7.17;;
15667;SDS011;7934;48.710;9.024;2023-05-21T13:38:59;7.15;;;6.55;;
15667;SDS011;7934;48.710;9.024;2023-05-21T13:41:27;7.07;;;6.53;;
15667;SDS011;7934;48.710;9.024;2023-05-21T13:43:54;6.78;;;6.28;;
15667;SDS011;7934;48.710;9.024;2023-05-21T13:46:23;7.20;;;6.60;;
15667;SDS011;7934;48.710;9.024;2023-05-21T13:48:50;7.10;;;6.53;;
15667;SDS011;7934;48.710;9.024;2023-05-21T13:51:17;7.40;;;6.75;;
15667;SDS011;7934;48.710;9.024;2023-05-21T13:53:44;7.47;;;6.80;;
15667;SDS011;7934;48.710;9.024;2023-05-21T13:56:11;7.78;;;6.60;;
15667;SDS011;7934;48.710;9.024;2023-05-21T13:58:38;6.95;;;6.30;;
15667;SDS011;7934;48.710;9.024;2023-05-21T14:01:05;6.47;;;5.90;;
15667;SDS011;7934;48.710;9.024;2023-05-21T14:03:34;7.10;;;6.50;;
15667;SDS011;7934;48.710;9.024;2023-05-21T14:06:01;6.80;;;6.13;;
15667;SDS011;7934;48.710;9.024;2023-05-21T14:08:28;6.63;;;6.00;;
15667;SDS011;7934;48.710;9.024;2023-05-21T14:10:55;6.13;;;5.72;;
15667;SDS011;7934;48.710;9.024;2023-05-21T14:13:22;6.40;;;5.90;;
15667;SDS011;7934;48.710;9.024;2023-05-21T14:15:49;6.35;;;5.85;;
15667;SDS011;7934;48.710;9.024;2023-05-21T14:18:17;6.63;;;6.00;;
15667;SDS011;7934;48.710;9.024;2023-05-21T14:20:45;6.70;;;6.20;;
15667;SDS011;7934;48.710;9.024;2023-05-21T14:23:12;6.00;;;5.50;;
15667;SDS011;7934;48.710;9.024;2023-05-21T14:25:40;6.20;;;5.72;;
15667;SDS011;7934;48.710;9.024;2023-05-21T14:28:07;6.50;;;6.00;;
15667;SDS011;7934;48.710;9.024;2023-05-21T14:30:34;5.90;;;5.40;;
15667;SDS011;7934;48.710;9.024;2023-05-21T14:33:01;6.30;;;5.70;;
15667;SDS011;7934;48.710;9.024;2023-05-21T14:35:29;5.90;;;5.50;;
15667;SDS011;7934;48.710;9.024;2023-05-21T14:37:57;6.18;;;5.72;;
15667;SDS011;7934;48.710;9.024;2023-05-21T14:40:24;5.78;;;5.38;;
15667;SDS011;7934;48.710;9.024;2023-05-21T14:42:51;5.60;;;5.10;;
15667;SDS011;7934;48.710;9.024;2023-05-21T14:45:20;5.47;;;5.18;;
15667;SDS011;7934;48.710;9.024;2023-05-21T14:47:47;5.60;;;5.20;;
15667;SDS011;7934;48.710;9.024;2023-05-21T14:50:14;5.70;;;5.17;;
15667;SDS011;7934;48.710;9.024;2023-05-21T14:52:42;5.55;;;5.07;;
15667;SDS011;7934;48.710;9.024;2023-05-21T14:55:11;5.63;;;5.18;;
15667;SDS011;7934;48.710;9.024;2023-05-21T14:57:40;5.40;;;5.10;;